Time;durP1;ratioP1;P1;durP2;ratioP2;P2;SDS_P1;SDS_P2;PMS_P1;PMS_P2;Temp;Humidity;BMP_temperature;BMP_pressure;BME280_temperature;BME280_humidity;BME280_pressure;Samples;Min_cycle;Max_cycle;Signal;HPM_P1;HPM_P2
2023/03/20 00:01:32;;;;;;;;;;;;;;;27.23;38.08;94454.50;4978253;28;7141;-54
2023/03/20 00:03:58;;;;;;;;;;;;;;;27.21;37.94;94446.72;4971665;28;8978;-55
2023/03/20 00:06:28;;;;;;;;;;;;;;;27.21;37.99;94449.47;4989781;28;7210;-54
2023/03/20 00:09:04;;;;;;;;;;;;;;;27.21;38.36;94455.00;4981793;28;9419;-54
2023/03/20 00:11:55;;;;;;;;;;;;;;;27.22;37.67;94458.50;4971517;28;9161;-54
2023/03/20 00:14:33;;;;;;;;;;;;;;;27.21;37.81;94455.00;4964132;28;7275;-54
2023/03/20 00:17:00;;;;;;;;;;;;;;;27.21;38.13;94457.75;4985669;28;9266;-54
2023/03/20 00:19:30;;;;;;;;;;;;;;;27.21;37.97;94455.00;4984744;28;9369;-54
2023/03/20 00:21:57;;;;;;;;;;;;;;;27.20;38.09;94461.03;4991157;28;7267;-55
2023/03/20 00:24:24;;;;;;;;;;;;;;;27.21;38.56;94468.06;4980214;28;7233;-54
2023/03/20 00:26:51;;;;;;;;;;;;;;;27.21;38.07;94465.31;4968548;28;9103;-54
2023/03/20 00:29:25;;;;;;;;;;;;;;;27.21;38.06;94462.56;4988687;28;8740;-54
2023/03/20 00:31:54;;;;;;;;;;;;;;;27.19;38.44;94465.81;5062856;28;9258;-54
2023/03/20 00:34:26;;;;;;;;;;;;;;;27.19;38.18;94462.31;5070451;28;7092;-54
2023/03/20 00:36:53;;;;;;;;;;;;;;;27.20;37.92;94464.56;5041542;28;9050;-54
2023/03/20 00:39:23;;;;;;;;;;;;;;;27.19;38.68;94468.56;5067128;28;7045;-54
2023/03/20 00:41:56;;;;;;;;;;;;;;;27.19;38.26;94456.78;5053983;28;7638;-54
2023/03/20 00:44:24;;;;;;;;;;;;;;;27.19;37.71;94460.28;5060517;28;8933;-54
2023/03/20 00:47:26;;;;;;;;;;;;;;;27.19;38.13;94462.31;5054702;28;7115;-54
2023/03/20 00:50:14;;;;;;;;;;;;;;;27.18;38.08;94453.28;5015845;28;8694;-54
2023/03/20 00:53:16;;;;;;;;;;;;;;;27.18;38.03;94452.53;5005835;28;7125;-54
2023/03/20 00:55:47;;;;;;;;;;;;;;;27.17;37.68;94448.28;4992743;28;8424;-54
2023/03/20 00:58:25;;;;;;;;;;;;;;;27.17;38.24;94449.03;4981755;28;7449;-54
2023/03/20 01:01:23;;;;;;;;;;;;;;;27.17;38.40;94443.50;4990309;28;9237;-54
2023/03/20 01:03:59;;;;;;;;;;;;;;;27.18;38.22;94447.78;4915712;29;7368;-54
2023/03/20 01:07:04;;;;;;;;;;;;;;;27.18;38.27;94445.00;4935325;29;9250;-54
2023/03/20 01:10:03;;;;;;;;;;;;;;;27.15;38.35;94443.28;4870867;29;7501;-54
2023/03/20 01:13:01;;;;;;;;;;;;;;;27.14;38.26;94441.78;4812891;29;8750;-54
2023/03/20 01:15:32;;;;;;;;;;;;;;;27.09;38.42;94448.13;4826477;29;8507;-54
2023/03/20 01:17:59;;;;;;;;;;;;;;;27.10;38.44;94441.31;4846666;29;8492;-54
2023/03/20 01:20:52;;;;;;;;;;;;;;;27.08;38.51;94443.84;5050194;28;6993;-54
2023/03/20 01:23:38;;;;;;;;;;;;;;;27.07;38.40;94442.38;5034660;28;7258;-54
2023/03/20 01:26:40;;;;;;;;;;;;;;;27.07;38.37;94445.13;5041770;28;8718;-54
2023/03/20 01:29:26;;;;;;;;;;;;;;;27.08;38.76;94432.81;5002844;28;9294;-54
2023/03/20 01:32:12;;;;;;;;;;;;;;;27.07;38.62;94433.34;4992530;28;7269;-55
2023/03/20 01:34:40;;;;;;;;;;;;;;;27.07;38.38;94442.38;4999693;28;8807;-54
2023/03/20 01:37:21;;;;;;;;;;;;;;;27.06;38.49;94440.88;5024424;28;7280;-54
2023/03/20 01:39:50;;;;;;;;;;;;;;;27.06;38.56;94445.63;5023349;28;7041;-54
2023/03/20 01:42:32;;;;;;;;;;;;;;;27.07;38.28;94445.13;4992269;28;9030;-54
2023/03/20 01:45:00;;;;;;;;;;;;;;;27.06;38.31;94448.41;4999212;28;9376;-54
2023/03/20 01:47:27;;;;;;;;;;;;;;;27.06;38.30;94446.38;5000582;28;7267;-54
2023/03/20 01:50:32;;;;;;;;;;;;;;;27.04;38.55;94439.88;5004282;28;8831;-54
2023/03/20 01:53:10;;;;;;;;;;;;;;;27.02;38.52;94434.91;4980063;28;8293;-54
2023/03/20 01:55:39;;;;;;;;;;;;;;;27.03;38.78;94447.44;4983054;28;9057;-54
2023/03/20 01:58:14;;;;;;;;;;;;;;;27.02;38.51;94443.19;4984928;28;9038;-54
2023/03/20 02:00:41;;;;;;;;;;;;;;;27.02;38.23;94439.66;4984423;28;9219;-54
2023/03/20 02:03:08;;;;;;;;;;;;;;;27.02;38.40;94439.66;4984415;28;9083;-54
2023/03/20 02:05:36;;;;;;;;;;;;;;;27.01;38.63;94443.69;4974054;28;9153;-54
2023/03/20 02:08:27;;;;;;;;;;;;;;;27.01;38.56;94447.22;5024912;28;9030;-54
2023/03/20 02:10:59;;;;;;;;;;;;;;;27.01;38.59;94438.94;5027789;28;9293;-54
2023/03/20 02:13:29;;;;;;;;;;;;;;;27.01;38.44;94444.47;5024481;28;7243;-54
2023/03/20 02:16:02;;;;;;;;;;;;;;;27.02;38.71;94448.69;5025183;28;8181;-54
2023/03/20 02:18:30;;;;;;;;;;;;;;;27.01;38.78;94454.75;5012475;28;7669;-54
2023/03/20 02:21:15;;;;;;;;;;;;;;;26.99;38.67;94452.47;5049175;28;9281;-54
2023/03/20 02:24:19;;;;;;;;;;;;;;;27.00;38.94;94461.50;5041722;28;9184;-54
2023/03/20 02:27:13;;;;;;;;;;;;;;;26.99;38.75;94458.00;5034623;28;7438;-54
2023/03/20 02:30:00;;;;;;;;;;;;;;;26.96;38.31;94455.53;5038206;28;7233;-54
2023/03/20 02:33:05;;;;;;;;;;;;;;;26.98;38.37;94461.28;5047980;28;8710;-54
2023/03/20 02:35:52;;;;;;;;;;;;;;;26.97;38.50;94455.00;5017789;28;7395;-54
2023/03/20 02:38:48;;;;;;;;;;;;;;;26.96;38.24;94464.56;5021207;28;9666;-54
2023/03/20 02:41:56;;;;;;;;;;;;;;;26.97;38.58;94471.56;5025562;28;8705;-54
2023/03/20 02:44:31;;;;;;;;;;;;;;;26.97;38.69;94463.28;4952247;28;7092;-54
2023/03/20 02:47:12;;;;;;;;;;;;;;;26.96;38.58;94467.34;4958264;28;7270;-54
2023/03/20 02:49:54;;;;;;;;;;;;;;;26.93;39.18;94465.59;4960126;28;9769;-54
2023/03/20 02:52:44;;;;;;;;;;;;;;;26.96;38.17;94474.88;4954954;28;7280;-54
2023/03/20 02:55:12;;;;;;;;;;;;;;;26.96;38.32;94472.09;4954717;28;7104;-54
2023/03/20 02:57:44;;;;;;;;;;;;;;;26.95;38.58;94474.09;4959740;28;7117;-54
2023/03/20 03:00:49;;;;;;;;;;;;;;;26.94;38.59;94472.63;4958254;28;9086;-54
2023/03/20 03:03:37;;;;;;;;;;;;;;;26.94;38.39;94472.63;4897365;29;7178;-54
2023/03/20 03:06:54;;;;;;;;;;;;;;;26.95;38.54;94482.38;4895311;29;7579;-54
2023/03/20 03:09:55;;;;;;;;;;;;;;;26.92;38.65;94481.41;4879064;29;7083;-54
2023/03/20 03:12:32;;;;;;;;;;;;;;;26.94;38.48;94485.69;4790093;29;9087;-54
2023/03/20 03:15:09;;;;;;;;;;;;;;;26.90;38.75;94481.19;4796503;29;7280;-54
2023/03/20 03:17:39;;;;;;;;;;;;;;;26.96;38.63;94483.16;4790682;29;9533;-54
2023/03/20 03:20:23;;;;;;;;;;;;;;;26.94;38.78;94480.91;4803944;29;7049;-54
2023/03/20 03:23:06;;;;;;;;;;;;;;;26.96;38.66;94488.66;4892481;29;9120;-54
2023/03/20 03:25:39;;;;;;;;;;;;;;;26.95;38.97;94490.66;4870164;29;8734;-54
2023/03/20 03:28:36;;;;;;;;;;;;;;;26.95;38.43;94487.19;4892459;29;7216;-54
2023/03/20 03:31:16;;;;;;;;;;;;;;;26.94;38.61;94493.97;4875266;29;7060;-54
2023/03/20 03:34:01;;;;;;;;;;;;;;;26.94;38.64;94493.97;4862972;29;9097;-54
2023/03/20 03:36:58;;;;;;;;;;;;;;;26.91;38.60;94490.22;4877043;29;7205;-55
2023/03/20 03:39:43;;;;;;;;;;;;;;;26.95;38.58;94501.00;4890219;29;9309;-54
2023/03/20 03:42:54;;;;;;;;;;;;;;;26.95;38.12;94506.50;4929352;29;7092;-54
2023/03/20 03:45:32;;;;;;;;;;;;;;;26.94;38.59;94505.75;4880806;29;9395;-54
2023/03/20 03:48:12;;;;;;;;;;;;;;;26.94;38.60;94511.28;4889413;28;7081;-54
2023/03/20 03:50:56;;;;;;;;;;;;;;;26.94;38.62;94510.53;4952445;28;7025;-54
2023/03/20 03:53:34;;;;;;;;;;;;;;;26.94;38.36;94500.22;4944897;28;9360;-54
2023/03/20 03:56:05;;;;;;;;;;;;;;;26.95;38.63;94509.28;4957623;28;8971;-54
2023/03/20 03:58:42;;;;;;;;;;;;;;;26.94;38.51;94516.03;4968369;28;7047;-54
2023/03/20 04:01:11;;;;;;;;;;;;;;;26.91;38.73;94517.81;4949758;28;9559;-54
2023/03/20 04:03:41;;;;;;;;;;;;;;;26.89;38.74;94514.81;4936478;28;7086;-54
2023/03/20 04:06:11;;;;;;;;;;;;;;;26.90;39.02;94525.34;4946563;28;9767;-54
2023/03/20 04:08:42;;;;;;;;;;;;;;;26.92;38.07;94521.34;4934782;28;7061;-54
2023/03/20 04:11:17;;;;;;;;;;;;;;;26.91;38.73;94526.09;4942247;28;7116;-54
2023/03/20 04:13:49;;;;;;;;;;;;;;;26.94;38.54;94527.84;4956135;28;9586;-55
2023/03/20 04:16:27;;;;;;;;;;;;;;;26.94;38.70;94527.84;5004012;28;9085;-54
2023/03/20 04:18:54;;;;;;;;;;;;;;;26.92;38.76;94529.63;5021722;28;7286;-54
2023/03/20 04:21:29;;;;;;;;;;;;;;;26.92;38.60;94530.38;5027076;28;7183;-54
2023/03/20 04:23:55;;;;;;;;;;;;;;;26.92;38.50;94531.09;5005304;28;7068;-54
2023/03/20 04:26:21;;;;;;;;;;;;;;;26.92;38.33;94531.09;5022603;28;7240;-54
2023/03/20 04:28:47;;;;;;;;;;;;;;;26.92;38.07;94533.84;5008620;28;8701;-54
2023/03/20 04:31:13;;;;;;;;;;;;;;;26.90;38.62;94541.19;5027350;28;8964;-54
2023/03/20 04:33:39;;;;;;;;;;;;;;;26.91;38.58;94537.13;5011818;28;7274;-54
2023/03/20 04:36:07;;;;;;;;;;;;;;;26.88;38.35;94532.66;5023285;28;7062;-54
2023/03/20 04:38:37;;;;;;;;;;;;;;;26.92;38.69;94542.13;5024881;28;7251;-54
2023/03/20 04:41:12;;;;;;;;;;;;;;;26.92;38.65;94541.41;5023205;28;7387;-54
2023/03/20 04:43:45;;;;;;;;;;;;;;;26.92;38.27;94537.91;5055420;28;7290;-54
2023/03/20 04:46:15;;;;;;;;;;;;;;;26.91;39.08;94539.91;5030666;28;7251;-54
2023/03/20 04:48:44;;;;;;;;;;;;;;;26.90;38.90;94549.47;5028197;28;9318;-54
2023/03/20 04:51:10;;;;;;;;;;;;;;;26.86;38.96;94538.69;5035885;28;7044;-54
2023/03/20 04:53:39;;;;;;;;;;;;;;;26.89;38.48;94539.66;5036749;28;7009;-54
2023/03/20 04:56:14;;;;;;;;;;;;;;;26.87;38.68;94539.44;5014975;28;8970;-54
2023/03/20 04:58:53;;;;;;;;;;;;;;;26.87;38.49;94540.19;5013090;28;7464;-54
2023/03/20 05:01:24;;;;;;;;;;;;;;;26.87;38.97;94542.19;5002407;28;8779;-54
2023/03/20 05:03:59;;;;;;;;;;;;;;;26.89;38.57;94547.94;5021736;28;7257;-54
2023/03/20 05:06:50;;;;;;;;;;;;;;;26.87;38.27;94550.47;5012507;28;9048;-54
2023/03/20 05:09:18;;;;;;;;;;;;;;;26.86;38.83;94541.44;5005978;28;8756;-54
2023/03/20 05:11:47;;;;;;;;;;;;;;;26.88;39.02;94541.66;5032285;28;7265;-54
2023/03/20 05:14:20;;;;;;;;;;;;;;;26.88;38.70;94540.94;5022188;28;7217;-54
2023/03/20 05:16:46;;;;;;;;;;;;;;;26.87;38.23;94540.19;5023704;28;7000;-54
2023/03/20 05:19:12;;;;;;;;;;;;;;;26.84;38.83;94534.94;5010767;28;7155;-54
2023/03/20 05:21:49;;;;;;;;;;;;;;;26.85;38.60;94534.44;5034142;28;9443;-54
2023/03/20 05:24:18;;;;;;;;;;;;;;;26.86;38.34;94527.63;5000243;28;9040;-54
2023/03/20 05:26:46;;;;;;;;;;;;;;;26.84;38.92;94518.38;5026798;28;7292;-54
2023/03/20 05:29:14;;;;;;;;;;;;;;;26.86;38.17;94526.91;5028222;28;9088;-54
2023/03/20 05:31:40;;;;;;;;;;;;;;;26.84;39.05;94515.63;5012349;28;7439;-54
2023/03/20 05:34:08;;;;;;;;;;;;;;;26.87;38.81;94526.38;5018525;28;7019;-54
2023/03/20 05:36:35;;;;;;;;;;;;;;;26.84;39.44;94518.38;5007378;28;7406;-54
2023/03/20 05:39:12;;;;;;;;;;;;;;;26.84;39.47;94515.63;5027125;28;7168;-54
2023/03/20 05:41:40;;;;;;;;;;;;;;;26.87;38.67;94528.41;5014296;28;7432;-54
2023/03/20 05:44:09;;;;;;;;;;;;;;;26.87;39.04;94526.38;5011098;28;8639;-54
2023/03/20 05:46:41;;;;;;;;;;;;;;;26.90;39.27;94535.66;5011346;28;7121;-54
2023/03/20 05:49:15;;;;;;;;;;;;;;;26.88;38.50;94536.16;5027738;28;9379;-54
2023/03/20 05:51:42;;;;;;;;;;;;;;;26.86;38.51;94535.19;5032087;28;9040;-54
2023/03/20 05:54:19;;;;;;;;;;;;;;;26.84;39.12;94548.72;5014146;28;7006;-54
2023/03/20 05:56:51;;;;;;;;;;;;;;;26.81;38.89;94547.78;5025880;28;7241;-54
2023/03/20 05:59:18;;;;;;;;;;;;;;;26.84;39.07;94557.00;5009353;28;9155;-54
2023/03/20 06:01:44;;;;;;;;;;;;;;;26.83;38.98;94558.28;5017238;28;9242;-54
2023/03/20 06:04:18;;;;;;;;;;;;;;;26.89;39.13;94564.50;5026824;28;9087;-54
2023/03/20 06:06:45;;;;;;;;;;;;;;;26.88;39.17;94568.53;5027710;28;7546;-54
2023/03/20 06:09:14;;;;;;;;;;;;;;;26.85;39.30;94569.56;5010677;28;7294;-54
2023/03/20 06:11:40;;;;;;;;;;;;;;;26.82;38.98;94576.84;5041998;28;9337;-54
2023/03/20 06:14:07;;;;;;;;;;;;;;;26.79;38.95;94577.16;5010458;28;6905;-54
2023/03/20 06:16:41;;;;;;;;;;;;;;;26.77;39.13;94569.38;5045575;28;8613;-54
2023/03/20 06:19:16;;;;;;;;;;;;;;;26.79;39.46;94568.88;5014865;28;8675;-54
2023/03/20 06:22:21;;;;;;;;;;;;;;;26.83;38.52;94566.56;5038864;28;9160;-54
2023/03/20 06:24:47;;;;;;;;;;;;;;;26.82;39.09;94556.78;5029487;28;7331;-54
2023/03/20 06:27:16;;;;;;;;;;;;;;;26.85;38.89;94564.03;5011778;28;7040;-55
2023/03/20 06:29:45;;;;;;;;;;;;;;;26.83;38.58;94569.34;5016079;28;7247;-54
2023/03/20 06:32:11;;;;;;;;;;;;;;;26.78;39.08;94564.59;5028384;28;8574;-54
2023/03/20 06:34:38;;;;;;;;;;;;;;;26.81;39.23;94571.84;5013474;28;8935;-54
2023/03/20 06:37:04;;;;;;;;;;;;;;;26.88;38.54;94568.53;5009504;28;9167;-54
2023/03/20 06:39:33;;;;;;;;;;;;;;;26.92;38.34;94564.22;5015494;28;7532;-54
2023/03/20 06:41:59;;;;;;;;;;;;;;;26.92;38.28;94566.25;5049815;28;7266;-54
2023/03/20 06:44:29;;;;;;;;;;;;;;;26.94;38.93;94554.69;5032847;28;9118;-54
2023/03/20 06:46:56;;;;;;;;;;;;;;;26.92;38.07;94555.22;5032383;28;7071;-54
2023/03/20 06:49:24;;;;;;;;;;;;;;;26.92;38.33;94554.44;5033345;28;7279;-54
2023/03/20 06:51:50;;;;;;;;;;;;;;;26.90;38.35;94552.94;5031417;28;8296;-54
2023/03/20 06:54:16;;;;;;;;;;;;;;;26.92;38.86;94564.22;5032790;28;9177;-54
2023/03/20 06:56:44;;;;;;;;;;;;;;;26.92;38.96;94562.72;5018327;28;9488;-54
2023/03/20 06:59:11;;;;;;;;;;;;;;;26.90;39.13;94569.50;5039509;28;7033;-54
2023/03/20 07:01:40;;;;;;;;;;;;;;;26.89;38.94;94575.56;5036116;28;7371;-54
2023/03/20 07:04:06;;;;;;;;;;;;;;;26.89;38.63;94570.78;5018146;28;7033;-54
2023/03/20 07:06:32;;;;;;;;;;;;;;;26.88;38.56;94577.56;5046658;28;9019;-54
2023/03/20 07:09:01;;;;;;;;;;;;;;;26.89;38.10;94581.06;5042098;28;9068;-54
2023/03/20 07:11:29;;;;;;;;;;;;;;;26.85;38.45;94580.59;5056533;28;7061;-54
2023/03/20 07:14:00;;;;;;;;;;;;;;;26.79;39.20;94591.69;5014134;28;7272;-54
2023/03/20 07:16:47;;;;;;;;;;;;;;;26.83;39.16;94586.66;5023234;28;8773;-54
2023/03/20 07:19:13;;;;;;;;;;;;;;;26.87;39.27;94587.13;5023704;28;8732;-54
2023/03/20 07:21:41;;;;;;;;;;;;;;;26.88;38.91;94596.88;5013341;28;6991;-54
2023/03/20 07:24:11;;;;;;;;;;;;;;;26.88;39.30;94596.16;5026800;28;7218;-54
2023/03/20 07:26:56;;;;;;;;;;;;;;;26.87;39.82;94602.91;5032697;28;8533;-54
2023/03/20 07:29:24;;;;;;;;;;;;;;;26.89;39.40;94600.38;5016010;28;8232;-54
2023/03/20 07:31:52;;;;;;;;;;;;;;;26.88;39.29;94599.63;5024738;28;7035;-54
2023/03/20 07:34:56;;;;;;;;;;;;;;;26.88;39.60;94588.59;5052232;28;7092;-54
2023/03/20 07:37:23;;;;;;;;;;;;;;;26.89;39.75;94586.59;5016111;28;9457;-54
2023/03/20 07:39:54;;;;;;;;;;;;;;;26.85;39.81;94575.09;5035798;28;8602;-54
2023/03/20 07:42:24;;;;;;;;;;;;;;;26.90;40.06;94577.06;5021656;28;8685;-54
2023/03/20 07:44:59;;;;;;;;;;;;;;;26.90;39.55;94569.50;5031391;28;7137;-54
2023/03/20 07:47:32;;;;;;;;;;;;;;;26.92;39.67;94575.25;5008875;28;9053;-54
2023/03/20 07:50:01;;;;;;;;;;;;;;;26.93;39.67;94573.25;5036239;28;9089;-54
2023/03/20 07:52:27;;;;;;;;;;;;;;;26.92;39.38;94571.78;5015326;28;7309;-54
2023/03/20 07:54:55;;;;;;;;;;;;;;;26.91;39.10;94581.28;5042213;28;7276;-54
2023/03/20 07:57:24;;;;;;;;;;;;;;;26.87;39.28;94570.56;5002408;28;8709;-54
2023/03/20 07:59:50;;;;;;;;;;;;;;;26.88;39.50;94580.31;5036733;28;7224;-55
2023/03/20 08:02:16;;;;;;;;;;;;;;;26.91;39.97;94578.53;5022098;28;7249;-54
2023/03/20 08:04:50;;;;;;;;;;;;;;;26.89;39.49;94576.31;5010906;28;7033;-55
2023/03/20 08:07:20;;;;;;;;;;;;;;;26.87;39.58;94570.56;5013538;28;7057;-54
2023/03/20 08:09:52;;;;;;;;;;;;;;;26.89;39.46;94570.03;5020001;28;7278;-54
2023/03/20 08:12:20;;;;;;;;;;;;;;;26.88;39.99;94571.31;5033483;28;6867;-54
2023/03/20 08:14:47;;;;;;;;;;;;;;;26.88;39.44;94565.78;5021787;28;8447;-54
2023/03/20 08:17:13;;;;;;;;;;;;;;;26.84;39.91;94562.53;5015808;28;7029;-54
2023/03/20 08:19:46;;;;;;;;;;;;;;;26.87;39.26;94561.50;5029160;28;7096;-54
2023/03/20 08:22:19;;;;;;;;;;;;;;;26.88;39.80;94571.31;5048631;28;7910;-55
2023/03/20 08:24:56;;;;;;;;;;;;;;;26.88;39.57;94585.09;5017831;28;8976;-54
2023/03/20 08:27:22;;;;;;;;;;;;;;;26.83;39.53;94577.63;5013888;28;7028;-54
2023/03/20 08:29:49;;;;;;;;;;;;;;;26.86;39.71;94587.63;5020926;28;7193;-54
2023/03/20 08:32:15;;;;;;;;;;;;;;;26.84;39.27;94579.84;5039740;28;9321;-54
2023/03/20 08:34:48;;;;;;;;;;;;;;;26.87;39.44;94583.59;5012188;28;7127;-54
2023/03/20 08:37:50;;;;;;;;;;;;;;;26.89;39.69;94581.06;5004045;28;9203;-54
2023/03/20 08:40:16;;;;;;;;;;;;;;;26.90;39.41;94577.06;4995391;28;7225;-55
2023/03/20 08:42:48;;;;;;;;;;;;;;;26.90;39.40;94583.31;4997158;28;6998;-54
2023/03/20 08:45:27;;;;;;;;;;;;;;;26.91;39.54;94586.81;4982088;28;7180;-54
2023/03/20 08:47:53;;;;;;;;;;;;;;;26.92;39.64;94585.56;4974881;28;9007;-54
2023/03/20 08:50:33;;;;;;;;;;;;;;;26.91;39.26;94589.56;4985747;28;7292;-54
2023/03/20 08:53:10;;;;;;;;;;;;;;;26.92;39.63;94599.38;4982272;28;9678;-54
2023/03/20 08:55:46;;;;;;;;;;;;;;;26.90;39.29;94594.34;4986009;28;8006;-54
2023/03/20 08:58:57;;;;;;;;;;;;;;;26.91;39.09;94595.09;4991223;28;7018;-54
2023/03/20 09:01:24;;;;;;;;;;;;;;;26.89;39.20;94592.88;4933714;29;8721;-54
2023/03/20 09:03:59;;;;;;;;;;;;;;;26.88;39.43;94596.16;4933777;29;7285;-54
2023/03/20 09:06:47;;;;;;;;;;;;;;;26.89;39.20;94598.38;4930975;28;7921;-54
2023/03/20 09:09:14;;;;;;;;;;;;;;;26.89;39.35;94609.44;4929296;29;8770;-55
2023/03/20 09:11:40;;;;;;;;;;;;;;;26.91;39.51;94600.63;4933592;29;7680;-55
2023/03/20 09:14:13;;;;;;;;;;;;;;;26.86;39.55;94604.19;4943910;28;8810;-55
2023/03/20 09:16:51;;;;;;;;;;;;;;;26.84;39.35;94601.19;4971126;28;7230;-55
2023/03/20 09:19:19;;;;;;;;;;;;;;;26.89;39.59;94614.19;4974325;28;9667;-54
2023/03/20 09:22:18;;;;;;;;;;;;;;;26.89;39.43;94603.16;4971731;28;7232;-54
2023/03/20 09:24:54;;;;;;;;;;;;;;;26.89;39.13;94614.94;4897744;29;7156;-54
2023/03/20 09:27:22;;;;;;;;;;;;;;;26.90;39.47;94607.41;4914668;29;9409;-55
2023/03/20 09:30:00;;;;;;;;;;;;;;;26.95;39.18;94611.41;4914385;29;9057;-54
2023/03/20 09:32:28;;;;;;;;;;;;;;;26.96;39.17;94610.88;4891052;29;7051;-54
2023/03/20 09:35:15;;;;;;;;;;;;;;;27.00;39.14;94614.09;4914849;29;7015;-54
2023/03/20 09:38:14;;;;;;;;;;;;;;;27.00;39.19;94616.88;4927669;28;7053;-55
2023/03/20 09:40:52;;;;;;;;;;;;;;;27.01;38.62;94618.38;4957275;28;8971;-55
2023/03/20 09:43:37;;;;;;;;;;;;;;;27.02;39.17;94619.84;4958283;28;7118;-55
2023/03/20 09:46:41;;;;;;;;;;;;;;;27.03;39.00;94617.84;4940564;28;8843;-54
2023/03/20 09:49:37;;;;;;;;;;;;;;;27.06;38.81;94611.28;4957575;28;9102;-54
2023/03/20 09:52:54;;;;;;;;;;;;;;;27.05;39.01;94613.31;4955718;28;9090;-54
2023/03/20 09:55:37;;;;;;;;;;;;;;;27.06;38.88;94614.03;4919118;29;8821;-54
2023/03/20 09:58:22;;;;;;;;;;;;;;;27.09;38.98;94607.50;4924819;29;9097;-55
2023/03/20 10:00:48;;;;;;;;;;;;;;;27.09;39.32;94611.00;4902098;29;7317;-54
2023/03/20 10:03:43;;;;;;;;;;;;;;;27.08;39.06;94600.50;4937548;28;9085;-55
2023/03/20 10:06:15;;;;;;;;;;;;;;;27.11;38.98;94596.69;4933759;29;7049;-54
2023/03/20 10:08:54;;;;;;;;;;;;;;;27.11;39.37;94596.69;4906788;29;7296;-55
2023/03/20 10:11:54;;;;;;;;;;;;;;;27.13;38.92;94600.44;4917119;29;8244;-54
2023/03/20 10:14:39;;;;;;;;;;;;;;;27.12;39.34;94600.97;4934571;28;7288;-54
2023/03/20 10:18:01;;;;;;;;;;;;;;;27.15;39.06;94600.66;4964121;28;7069;-55
2023/03/20 10:20:39;;;;;;;;;;;;;;;27.13;39.11;94591.41;4888960;29;7193;-54
2023/03/20 10:23:37;;;;;;;;;;;;;;;27.14;38.87;94596.41;4896773;29;9090;-54
2023/03/20 10:26:22;;;;;;;;;;;;;;;27.14;39.20;94596.41;4882409;29;9118;-55
2023/03/20 10:29:00;;;;;;;;;;;;;;;27.14;38.99;94592.91;4892926;29;7262;-54
2023/03/20 10:32:16;;;;;;;;;;;;;;;27.14;39.10;94590.91;4942501;28;8766;-54
2023/03/20 10:34:59;;;;;;;;;;;;;;;27.17;38.56;94594.63;4909036;29;7291;-55
2023/03/20 10:38:06;;;;;;;;;;;;;;;27.18;39.26;94596.88;4919131;29;8828;-54
2023/03/20 10:40:37;;;;;;;;;;;;;;;27.18;39.19;94594.13;4883494;29;8947;-54
2023/03/20 10:43:31;;;;;;;;;;;;;;;27.18;38.70;94585.84;4919481;29;7069;-54
2023/03/20 10:46:06;;;;;;;;;;;;;;;27.20;38.29;94582.53;4908694;29;7048;-54
2023/03/20 10:49:03;;;;;;;;;;;;;;;27.20;38.83;94594.34;4926024;29;9022;-54
2023/03/20 10:52:11;;;;;;;;;;;;;;;27.20;38.83;94586.06;4895693;29;7354;-55
2023/03/20 10:54:59;;;;;;;;;;;;;;;27.22;38.64;94585.53;4905932;29;9092;-54
2023/03/20 10:57:40;;;;;;;;;;;;;;;27.23;39.09;94590.53;4892408;29;7434;-54
2023/03/20 11:00:33;;;;;;;;;;;;;;;27.24;38.78;94581.00;4897356;29;7026;-54
2023/03/20 11:03:11;;;;;;;;;;;;;;;27.24;39.01;94567.19;4896145;29;9468;-55
2023/03/20 11:06:06;;;;;;;;;;;;;;;27.27;38.67;94563.41;4892783;29;9063;-55
2023/03/20 11:09:18;;;;;;;;;;;;;;;27.27;38.56;94566.16;4917512;29;8993;-55
2023/03/20 11:11:47;;;;;;;;;;;;;;;27.25;38.50;94563.16;4885730;29;8983;-55
2023/03/20 11:14:32;;;;;;;;;;;;;;;27.29;38.38;94569.16;4874182;29;8731;-55
2023/03/20 11:17:05;;;;;;;;;;;;;;;27.27;38.63;94571.69;4895134;29;7053;-55
2023/03/20 11:19:38;;;;;;;;;;;;;;;27.25;38.93;94576.97;4866996;29;7349;-54
2023/03/20 11:22:19;;;;;;;;;;;;;;;27.24;39.36;94575.47;4877839;29;8681;-55
2023/03/20 11:24:51;;;;;;;;;;;;;;;27.25;38.80;94584.50;4880060;29;8748;-55
2023/03/20 11:27:32;;;;;;;;;;;;;;;27.26;38.54;94578.47;4893887;29;9505;-54
2023/03/20 11:30:17;;;;;;;;;;;;;;;27.25;38.34;94579.72;4944215;28;7286;-54
2023/03/20 11:33:00;;;;;;;;;;;;;;;27.26;38.76;94581.22;4937129;28;7287;-54
2023/03/20 11:35:26;;;;;;;;;;;;;;;27.26;38.69;94584.00;4937640;28;9402;-55
2023/03/20 11:37:57;;;;;;;;;;;;;;;27.22;38.89;94583.53;4936263;28;9645;-55
2023/03/20 11:40:31;;;;;;;;;;;;;;;27.24;39.36;94578.25;4918377;28;6966;-55
2023/03/20 11:43:00;;;;;;;;;;;;;;;27.24;38.91;94583.75;4922369;28;8711;-55
2023/03/20 11:45:38;;;;;;;;;;;;;;;27.24;38.82;94571.97;4983549;28;7116;-54
2023/03/20 11:48:56;;;;;;;;;;;;;;;27.27;38.78;94582.75;5022440;28;7272;-54
2023/03/20 11:51:35;;;;;;;;;;;;;;;27.27;38.30;94582.75;5015769;28;9162;-54
2023/03/20 11:54:15;;;;;;;;;;;;;;;27.27;38.92;94574.44;5010574;28;9467;-54
2023/03/20 11:56:55;;;;;;;;;;;;;;;27.30;38.85;94578.16;5000665;28;7285;-55
2023/03/20 11:59:30;;;;;;;;;;;;;;;27.29;38.44;94576.69;4990845;28;9086;-55
2023/03/20 12:02:01;;;;;;;;;;;;;;;27.31;38.29;94585.97;5005490;28;8158;-54
2023/03/20 12:04:32;;;;;;;;;;;;;;;27.30;38.70;94581.69;4991997;28;9157;-54
2023/03/20 12:07:21;;;;;;;;;;;;;;;27.29;38.36;94577.44;4994243;28;9349;-55
2023/03/20 12:09:57;;;;;;;;;;;;;;;27.29;38.97;94585.72;4986423;28;7227;-55
2023/03/20 12:12:34;;;;;;;;;;;;;;;27.29;38.02;94590.50;4996863;28;7049;-55
2023/03/20 12:15:22;;;;;;;;;;;;;;;27.29;38.60;94585.72;4989171;28;8505;-54
2023/03/20 12:17:50;;;;;;;;;;;;;;;27.29;38.54;94588.50;4997303;28;6985;-55
2023/03/20 12:20:59;;;;;;;;;;;;;;;27.29;38.60;94584.97;4994714;28;7128;-55
2023/03/20 12:23:37;;;;;;;;;;;;;;;27.30;38.64;94584.44;5020002;28;8688;-54
2023/03/20 12:26:32;;;;;;;;;;;;;;;27.31;38.64;94582.44;5019687;28;7153;-55
2023/03/20 12:29:37;;;;;;;;;;;;;;;27.30;38.50;94581.69;5008736;28;9059;-55
2023/03/20 12:32:22;;;;;;;;;;;;;;;27.29;38.46;94580.22;4984410;28;9433;-54
2023/03/20 12:35:29;;;;;;;;;;;;;;;27.30;38.85;94567.88;4994421;28;7355;-54
2023/03/20 12:37:58;;;;;;;;;;;;;;;27.29;38.48;94574.69;4928609;29;7269;-55
2023/03/20 12:40:45;;;;;;;;;;;;;;;27.30;38.50;94580.94;4923108;29;9373;-54
2023/03/20 12:43:42;;;;;;;;;;;;;;;27.31;38.66;94577.66;4924691;29;8820;-54
2023/03/20 12:47:02;;;;;;;;;;;;;;;27.31;38.37;94572.16;4934094;29;7263;-54
2023/03/20 12:49:31;;;;;;;;;;;;;;;27.32;38.16;94567.34;4873404;29;7298;-54
2023/03/20 12:52:10;;;;;;;;;;;;;;;27.30;38.35;94567.88;4866802;29;9285;-54
2023/03/20 12:55:08;;;;;;;;;;;;;;;27.30;38.23;94565.13;4866576;29;7179;-54
2023/03/20 12:58:07;;;;;;;;;;;;;;;27.36;38.36;94556.81;4848084;29;9559;-55
2023/03/20 13:00:57;;;;;;;;;;;;;;;27.35;38.15;94553.28;4870886;29;9572;-54
2023/03/20 13:03:57;;;;;;;;;;;;;;;27.36;38.36;94560.31;4856202;29;9386;-54
2023/03/20 13:06:46;;;;;;;;;;;;;;;27.37;38.13;94563.81;4854284;29;7328;-54
2023/03/20 13:09:41;;;;;;;;;;;;;;;27.37;38.35;94559.06;4874382;29;7434;-55
2023/03/20 13:12:55;;;;;;;;;;;;;;;27.36;38.31;94563.06;4874432;29;9688;-55
2023/03/20 13:15:41;;;;;;;;;;;;;;;27.37;38.28;94561.06;4861536;29;9439;-55
2023/03/20 13:18:51;;;;;;;;;;;;;;;27.38;38.36;94559.81;4876652;29;7788;-55
2023/03/20 13:22:00;;;;;;;;;;;;;;;27.37;38.41;94559.06;4876743;29;7296;-55
2023/03/20 13:24:47;;;;;;;;;;;;;;;27.34;38.06;94553.78;4839223;29;7562;-54
2023/03/20 13:27:14;;;;;;;;;;;;;;;27.30;38.20;94553.31;4849373;29;6993;-55
2023/03/20 13:29:59;;;;;;;;;;;;;;;27.30;38.34;94553.31;4828343;29;8398;-54
2023/03/20 13:32:51;;;;;;;;;;;;;;;27.29;38.23;94552.59;4847425;29;9113;-54
2023/03/20 13:35:41;;;;;;;;;;;;;;;27.28;38.41;94548.31;4840687;29;8749;-55
2023/03/20 13:38:41;;;;;;;;;;;;;;;27.27;38.47;94541.31;4834115;29;9037;-54
2023/03/20 13:41:17;;;;;;;;;;;;;;;27.27;38.50;94535.78;4831946;29;7590;-55
2023/03/20 13:44:02;;;;;;;;;;;;;;;27.26;38.25;94533.53;4844310;29;7635;-54
2023/03/20 13:46:52;;;;;;;;;;;;;;;27.24;38.80;94528.53;4853911;29;7552;-54
2023/03/20 13:49:46;;;;;;;;;;;;;;;27.28;38.74;94533.75;4855505;29;7077;-54
2023/03/20 13:52:19;;;;;;;;;;;;;;;27.27;38.59;94527.50;4908697;29;7058;-55
2023/03/20 13:55:20;;;;;;;;;;;;;;;27.28;38.49;94528.97;4935779;29;7277;-55
2023/03/20 13:57:56;;;;;;;;;;;;;;;27.26;38.52;94526.00;4954060;28;8932;-54
2023/03/20 14:01:00;;;;;;;;;;;;;;;27.27;38.40;94516.47;5021795;28;7216;-54